Camacinhos — CUDM8 — position and weather

sailwx.info

Track history (hours):
 
Tides and Currents Weather Stations Pressure Air Temp Water Temp Dewpoint Dewpoint Depression Visibility Wind Speed Wind Dir Waves Ship Positions

Camacinhos

Last reported at 2018-Jun-22 22:19 UTC. Time now 2018-Jun-23 00:24 UTC.
Position N 41°09' W 008°46'.

Length 22 m.

Type: Fishing. MMSI: 263411780.

Date/timePositionNaut miles runAvg speedWind from/ knotsBaromVisibWave heightAir tempDewpointWater temp
2018-Jun-22 22:19N 41°09' W 008°46'3 9.8
2018-Jun-22 22:00N 41°11' W 008°42'0 0.0
2018-Jun-22 07:05N 41°11' W 008°42'0 0.1
2018-Jun-22 07:00N 41°11' W 008°42'0 0.0
2018-Jun-22 06:30N 41°11' W 008°42'3 5.4
2018-Jun-22 06:00N 41°10' W 008°46'2 0.2
2018-Jun-21 22:00N 41°09' W 008°44'3 0.2
2018-Jun-21 10:04N 41°11' W 008°42'0 0.0
2018-Jun-21 10:00N 41°11' W 008°42'0 0.0
2018-Jun-21 09:30N 41°11' W 008°42'0 0.0
2018-Jun-21 09:00N 41°11' W 008°42'2 0.2
2018-Jun-20 22:05N 41°09' W 008°43'110.2
2018-Jun-20 22:00N 41°10' W 008°43'1 2.4
2018-Jun-20 21:30N 41°11' W 008°42'0 0.0
2018-Jun-20 21:00N 41°11' W 008°42'0 0.0
2018-Jun-20 20:30N 41°11' W 008°42'0 0.0
2018-Jun-20 20:00N 41°11' W 008°42'0 0.0
2018-Jun-20 19:30N 41°11' W 008°42'0 0.0
2018-Jun-20 19:00N 41°11' W 008°42'0 0.0
2018-Jun-20 18:30N 41°11' W 008°42'0 0.0
2018-Jun-20 18:00N 41°11' W 008°42'0 0.0
2018-Jun-20 17:30N 41°11' W 008°42'0 0.0
2018-Jun-20 17:00N 41°11' W 008°42'0 0.0
2018-Jun-20 16:30N 41°11' W 008°42'0 0.0
2018-Jun-20 16:00N 41°11' W 008°42'0 0.0
2018-Jun-20 15:30N 41°11' W 008°42'0 0.0
2018-Jun-20 15:00N 41°11' W 008°42'0 0.0
2018-Jun-20 14:30N 41°11' W 008°42'0 0.0
2018-Jun-20 14:00N 41°11' W 008°42'0 0.0
2018-Jun-20 13:30N 41°11' W 008°42'0 0.0
2018-Jun-20 13:00N 41°11' W 008°42'0 0.0
2018-Jun-20 12:30N 41°11' W 008°42'0 0.0
2018-Jun-20 12:00N 41°11' W 008°42'0 0.0
2018-Jun-20 11:30N 41°11' W 008°42'0 0.0
2018-Jun-20 11:00N 41°11' W 008°42'0 0.0
2018-Jun-20 10:30N 41°11' W 008°42'0 0.0
2018-Jun-20 10:00N 41°11' W 008°42'0 0.0
2018-Jun-20 09:30N 41°11' W 008°42'0 0.0
2018-Jun-20 09:00N 41°11' W 008°42'0 0.0
2018-Jun-20 08:30N 41°11' W 008°42'0 0.0
2018-Jun-20 08:00N 41°11' W 008°42'0 0.0
2018-Jun-20 07:30N 41°11' W 008°42'0 0.0
2018-Jun-20 07:00N 41°11' W 008°42'0 0.0
2018-Jun-20 06:30N 41°11' W 008°42'0 0.0
2018-Jun-20 06:01N 41°11' W 008°42'0 1.0
2018-Jun-20 05:30N 41°10' W 008°42'2 0.3
2018-Jun-19 22:22N 41°09' W 008°44'2 6.3
2018-Jun-19 22:00N 41°11' W 008°42'0 0.0
2018-Jun-19 10:12N 41°11' W 008°42'0 0.0
2018-Jun-19 10:00N 41°11' W 008°42'0 0.0
2018-Jun-19 09:29N 41°11' W 008°42'0 0.0
2018-Jun-19 09:00N 41°11' W 008°42'0 0.0
2018-Jun-19 08:30N 41°11' W 008°42'0 0.0
2018-Jun-19 08:00N 41°11' W 008°42'0 0.0
2018-Jun-19 07:30N 41°11' W 008°42'2 0.2
2018-Jun-18 22:23N 41°09' W 008°42'2 4.5
2018-Jun-18 22:00N 41°11' W 008°42'0 0.0
2018-Jun-18 21:30N 41°11' W 008°42'0 0.0
2018-Jun-18 21:00N 41°11' W 008°42'0 0.0
2018-Jun-18 20:30N 41°11' W 008°42'0 0.0
2018-Jun-18 20:00N 41°11' W 008°42'0 0.0
2018-Jun-18 19:30N 41°11' W 008°42'0 0.0
2018-Jun-18 19:00N 41°11' W 008°42'0 0.0
2018-Jun-18 18:30N 41°11' W 008°42'0 0.0
2018-Jun-18 18:00N 41°11' W 008°42'0 0.0
2018-Jun-18 17:30N 41°11' W 008°42'0 0.0
2018-Jun-18 17:00N 41°11' W 008°42'0 0.0
2018-Jun-18 16:30N 41°11' W 008°42'0 0.0
2018-Jun-18 16:00N 41°11' W 008°42'0 0.0
2018-Jun-18 15:30N 41°11' W 008°42'0 0.0
2018-Jun-18 15:00N 41°11' W 008°42'0 0.0
2018-Jun-18 14:30N 41°11' W 008°42'0 0.0
2018-Jun-18 14:00N 41°11' W 008°42'0 0.0
2018-Jun-18 13:30N 41°11' W 008°42'0 0.0
2018-Jun-18 13:00N 41°11' W 008°42'0 0.0
2018-Jun-18 12:30N 41°11' W 008°42'0 0.0
2018-Jun-18 12:00N 41°11' W 008°42'0 0.0
2018-Jun-18 11:30N 41°11' W 008°42'0 0.0
2018-Jun-18 11:00N 41°11' W 008°42'0 0.0
2018-Jun-18 10:30N 41°11' W 008°42'0 0.0
2018-Jun-18 10:00N 41°11' W 008°42'0 0.0
2018-Jun-18 09:30N 41°11' W 008°42'0 0.0
2018-Jun-18 09:00N 41°11' W 008°42'0 0.0
2018-Jun-18 08:30N 41°11' W 008°42'1 2.0
2018-Jun-18 08:00N 41°10' W 008°42'0 0.0
2018-Jun-18 01:03N 41°10' W 008°43'0 8.8
2018-Jun-18 01:00N 41°10' W 008°42'1 1.8
2018-Jun-18 00:30N 41°11' W 008°42'0 0.0
2018-Jun-18 00:00N 41°11' W 008°42'0 0.0
2018-Jun-17 23:30N 41°11' W 008°42'0 0.0
2018-Jun-17 23:00N 41°11' W 008°42'0 0.0
2018-Jun-17 22:30N 41°11' W 008°42'  
2018-Jun-15 09:00N 41°11' W 008°42'0 0.0
2018-Jun-15 08:30N 41°11' W 008°42'0 0.0
2018-Jun-15 08:00N 41°11' W 008°42'0 0.0
2018-Jun-15 07:30N 41°11' W 008°42'1 2.5
2018-Jun-15 07:00N 41°10' W 008°43'1 0.2
2018-Jun-15 01:09N 41°09' W 008°42'1 8.6
2018-Jun-15 01:00N 41°10' W 008°42'1 1.5
2018-Jun-15 00:30N 41°11' W 008°42'0 0.0
2018-Jun-15 00:00N 41°11' W 008°42'0 0.0
2018-Jun-14 23:30N 41°11' W 008°42'0 0.0
2018-Jun-14 23:00N 41°11' W 008°42'0 0.0
2018-Jun-14 22:30N 41°11' W 008°42'0 0.0
2018-Jun-14 22:00N 41°11' W 008°42'0 0.0
2018-Jun-14 09:19N 41°11' W 008°42'0 0.0
2018-Jun-14 09:01N 41°11' W 008°42'0 0.0
2018-Jun-14 08:30N 41°11' W 008°42'0 0.0
2018-Jun-14 08:00N 41°11' W 008°42'1 2.0
2018-Jun-14 07:30N 41°10' W 008°42'2 0.2
2018-Jun-14 01:02N 41°09' W 008°43'110.3
2018-Jun-14 00:59N 41°09' W 008°43'2 4.4
2018-Jun-14 00:30N 41°11' W 008°42'0 0.1
2018-Jun-14 00:00N 41°11' W 008°42'0 0.0
2018-Jun-13 23:30N 41°11' W 008°42'0 0.0
2018-Jun-13 23:00N 41°11' W 008°42'0 0.0
2018-Jun-13 22:31N 41°11' W 008°42'0 0.0
2018-Jun-13 22:00N 41°11' W 008°42'0 0.0
2018-Jun-13 01:36N 41°11' W 008°42'0 0.0
2018-Jun-13 01:30N 41°11' W 008°42'1 2.7
2018-Jun-13 01:00N 41°10' W 008°42'3 1.3
2018-Jun-12 23:02N 41°07' W 008°43'010.8
2018-Jun-12 23:00N 41°07' W 008°43'4 7.1
2018-Jun-12 22:30N 41°11' W 008°42'  
Track history (hours):
 
Tides and Currents Weather Stations Pressure Air Temp Water Temp Dewpoint Dewpoint Depression Visibility Wind Speed Wind Dir Waves Ship Positions

Camacinhos

Last reported at 2018-Jun-22 22:19 UTC. Time now 2018-Jun-23 00:24 UTC.
Position N 41°09' W 008°46'.

Length 22 m.

Type: Fishing. MMSI: 263411780.

Date/timePositionNaut miles runAvg speedWind from/ knotsBaromVisibWave heightAir tempDewpointWater temp
2018-Jun-22 22:19N 41°09' W 008°46'3 9.8
2018-Jun-22 22:00N 41°11' W 008°42'0 0.0
2018-Jun-22 07:05N 41°11' W 008°42'0 0.1
2018-Jun-22 07:00N 41°11' W 008°42'0 0.0
2018-Jun-22 06:30N 41°11' W 008°42'3 5.4
2018-Jun-22 06:00N 41°10' W 008°46'2 0.2
2018-Jun-21 22:00N 41°09' W 008°44'3 0.2
2018-Jun-21 10:04N 41°11' W 008°42'0 0.0
2018-Jun-21 10:00N 41°11' W 008°42'0 0.0
2018-Jun-21 09:30N 41°11' W 008°42'0 0.0
2018-Jun-21 09:00N 41°11' W 008°42'2 0.2
2018-Jun-20 22:05N 41°09' W 008°43'110.2
2018-Jun-20 22:00N 41°10' W 008°43'1 2.4
2018-Jun-20 21:30N 41°11' W 008°42'0 0.0
2018-Jun-20 21:00N 41°11' W 008°42'0 0.0
2018-Jun-20 20:30N 41°11' W 008°42'0 0.0
2018-Jun-20 20:00N 41°11' W 008°42'0 0.0
2018-Jun-20 19:30N 41°11' W 008°42'0 0.0
2018-Jun-20 19:00N 41°11' W 008°42'0 0.0
2018-Jun-20 18:30N 41°11' W 008°42'0 0.0
2018-Jun-20 18:00N 41°11' W 008°42'0 0.0
2018-Jun-20 17:30N 41°11' W 008°42'0 0.0
2018-Jun-20 17:00N 41°11' W 008°42'0 0.0
2018-Jun-20 16:30N 41°11' W 008°42'0 0.0
2018-Jun-20 16:00N 41°11' W 008°42'0 0.0
2018-Jun-20 15:30N 41°11' W 008°42'0 0.0
2018-Jun-20 15:00N 41°11' W 008°42'0 0.0
2018-Jun-20 14:30N 41°11' W 008°42'0 0.0
2018-Jun-20 14:00N 41°11' W 008°42'0 0.0
2018-Jun-20 13:30N 41°11' W 008°42'0 0.0
2018-Jun-20 13:00N 41°11' W 008°42'0 0.0
2018-Jun-20 12:30N 41°11' W 008°42'0 0.0
2018-Jun-20 12:00N 41°11' W 008°42'0 0.0
2018-Jun-20 11:30N 41°11' W 008°42'0 0.0
2018-Jun-20 11:00N 41°11' W 008°42'0 0.0
2018-Jun-20 10:30N 41°11' W 008°42'0 0.0
2018-Jun-20 10:00N 41°11' W 008°42'0 0.0
2018-Jun-20 09:30N 41°11' W 008°42'0 0.0
2018-Jun-20 09:00N 41°11' W 008°42'0 0.0
2018-Jun-20 08:30N 41°11' W 008°42'0 0.0
2018-Jun-20 08:00N 41°11' W 008°42'0 0.0
2018-Jun-20 07:30N 41°11' W 008°42'0 0.0
2018-Jun-20 07:00N 41°11' W 008°42'0 0.0
2018-Jun-20 06:30N 41°11' W 008°42'0 0.0
2018-Jun-20 06:01N 41°11' W 008°42'0 1.0
2018-Jun-20 05:30N 41°10' W 008°42'2 0.3
2018-Jun-19 22:22N 41°09' W 008°44'2 6.3
2018-Jun-19 22:00N 41°11' W 008°42'0 0.0
2018-Jun-19 10:12N 41°11' W 008°42'0 0.0
2018-Jun-19 10:00N 41°11' W 008°42'0 0.0
2018-Jun-19 09:29N 41°11' W 008°42'0 0.0
2018-Jun-19 09:00N 41°11' W 008°42'0 0.0
2018-Jun-19 08:30N 41°11' W 008°42'0 0.0
2018-Jun-19 08:00N 41°11' W 008°42'0 0.0
2018-Jun-19 07:30N 41°11' W 008°42'2 0.2
2018-Jun-18 22:23N 41°09' W 008°42'2 4.5
2018-Jun-18 22:00N 41°11' W 008°42'0 0.0
2018-Jun-18 21:30N 41°11' W 008°42'0 0.0
2018-Jun-18 21:00N 41°11' W 008°42'0 0.0
2018-Jun-18 20:30N 41°11' W 008°42'0 0.0
2018-Jun-18 20:00N 41°11' W 008°42'0 0.0
2018-Jun-18 19:30N 41°11' W 008°42'0 0.0
2018-Jun-18 19:00N 41°11' W 008°42'0 0.0
2018-Jun-18 18:30N 41°11' W 008°42'0 0.0
2018-Jun-18 18:00N 41°11' W 008°42'0 0.0
2018-Jun-18 17:30N 41°11' W 008°42'0 0.0
2018-Jun-18 17:00N 41°11' W 008°42'0 0.0
2018-Jun-18 16:30N 41°11' W 008°42'0 0.0
2018-Jun-18 16:00N 41°11' W 008°42'0 0.0
2018-Jun-18 15:30N 41°11' W 008°42'0 0.0
2018-Jun-18 15:00N 41°11' W 008°42'0 0.0
2018-Jun-18 14:30N 41°11' W 008°42'0 0.0
2018-Jun-18 14:00N 41°11' W 008°42'0 0.0
2018-Jun-18 13:30N 41°11' W 008°42'0 0.0
2018-Jun-18 13:00N 41°11' W 008°42'0 0.0
2018-Jun-18 12:30N 41°11' W 008°42'0 0.0
2018-Jun-18 12:00N 41°11' W 008°42'0 0.0
2018-Jun-18 11:30N 41°11' W 008°42'0 0.0
2018-Jun-18 11:00N 41°11' W 008°42'0 0.0
2018-Jun-18 10:30N 41°11' W 008°42'0 0.0
2018-Jun-18 10:00N 41°11' W 008°42'0 0.0
2018-Jun-18 09:30N 41°11' W 008°42'0 0.0
2018-Jun-18 09:00N 41°11' W 008°42'0 0.0
2018-Jun-18 08:30N 41°11' W 008°42'1 2.0
2018-Jun-18 08:00N 41°10' W 008°42'0 0.0
2018-Jun-18 01:03N 41°10' W 008°43'0 8.8
2018-Jun-18 01:00N 41°10' W 008°42'1 1.8
2018-Jun-18 00:30N 41°11' W 008°42'0 0.0
2018-Jun-18 00:00N 41°11' W 008°42'0 0.0
2018-Jun-17 23:30N 41°11' W 008°42'0 0.0
2018-Jun-17 23:00N 41°11' W 008°42'0 0.0
2018-Jun-17 22:30N 41°11' W 008°42'  
2018-Jun-15 09:00N 41°11' W 008°42'0 0.0
2018-Jun-15 08:30N 41°11' W 008°42'0 0.0
2018-Jun-15 08:00N 41°11' W 008°42'0 0.0
2018-Jun-15 07:30N 41°11' W 008°42'1 2.5
2018-Jun-15 07:00N 41°10' W 008°43'1 0.2
2018-Jun-15 01:09N 41°09' W 008°42'1 8.6
2018-Jun-15 01:00N 41°10' W 008°42'1 1.5
2018-Jun-15 00:30N 41°11' W 008°42'0 0.0
2018-Jun-15 00:00N 41°11' W 008°42'0 0.0
2018-Jun-14 23:30N 41°11' W 008°42'0 0.0
2018-Jun-14 23:00N 41°11' W 008°42'0 0.0
2018-Jun-14 22:30N 41°11' W 008°42'0 0.0
2018-Jun-14 22:00N 41°11' W 008°42'0 0.0
2018-Jun-14 09:19N 41°11' W 008°42'0 0.0
2018-Jun-14 09:01N 41°11' W 008°42'0 0.0
2018-Jun-14 08:30N 41°11' W 008°42'0 0.0
2018-Jun-14 08:00N 41°11' W 008°42'1 2.0
2018-Jun-14 07:30N 41°10' W 008°42'2 0.2
2018-Jun-14 01:02N 41°09' W 008°43'110.3
2018-Jun-14 00:59N 41°09' W 008°43'2 4.4
2018-Jun-14 00:30N 41°11' W 008°42'0 0.1
2018-Jun-14 00:00N 41°11' W 008°42'0 0.0
2018-Jun-13 23:30N 41°11' W 008°42'0 0.0
2018-Jun-13 23:00N 41°11' W 008°42'0 0.0
2018-Jun-13 22:31N 41°11' W 008°42'0 0.0
2018-Jun-13 22:00N 41°11' W 008°42'0 0.0
2018-Jun-13 01:36N 41°11' W 008°42'0 0.0
2018-Jun-13 01:30N 41°11' W 008°42'1 2.7
2018-Jun-13 01:00N 41°10' W 008°42'3 1.3
2018-Jun-12 23:02N 41°07' W 008°43'010.8
2018-Jun-12 23:00N 41°07' W 008°43'4 7.1
2018-Jun-12 22:30N 41°11' W 008°42'  

Dump ship's entire track history